sensor_id;sensor_type;location;lat;lon;timestamp;P1;durP1;ratioP1;P2;durP2;ratioP2
22064;SDS011;11197;53.110;8.468;2023-07-31T00:00:16;5.95;;;2.60;;
22064;SDS011;11197;53.110;8.468;2023-07-31T00:02:42;8.13;;;2.58;;
22064;SDS011;11197;53.110;8.468;2023-07-31T00:05:08;8.45;;;2.85;;
22064;SDS011;11197;53.110;8.468;2023-07-31T00:07:34;9.48;;;2.55;;
22064;SDS011;11197;53.110;8.468;2023-07-31T00:10:00;7.35;;;2.80;;
22064;SDS011;11197;53.110;8.468;2023-07-31T00:12:26;6.70;;;2.30;;
22064;SDS011;11197;53.110;8.468;2023-07-31T00:14:51;7.32;;;2.63;;
22064;SDS011;11197;53.110;8.468;2023-07-31T00:17:17;6.60;;;2.40;;
22064;SDS011;11197;53.110;8.468;2023-07-31T00:19:43;4.78;;;2.30;;
22064;SDS011;11197;53.110;8.468;2023-07-31T00:22:11;8.07;;;2.50;;
22064;SDS011;11197;53.110;8.468;2023-07-31T00:24:37;5.28;;;2.40;;
22064;SDS011;11197;53.110;8.468;2023-07-31T00:27:03;5.57;;;2.33;;
22064;SDS011;11197;53.110;8.468;2023-07-31T00:29:29;5.05;;;2.15;;
22064;SDS011;11197;53.110;8.468;2023-07-31T00:31:56;4.60;;;1.98;;
22064;SDS011;11197;53.110;8.468;2023-07-31T00:34:21;9.68;;;2.20;;
22064;SDS011;11197;53.110;8.468;2023-07-31T00:36:47;5.15;;;2.03;;
22064;SDS011;11197;53.110;8.468;2023-07-31T00:39:15;6.60;;;2.38;;
22064;SDS011;11197;53.110;8.468;2023-07-31T00:41:43;4.32;;;2.10;;
22064;SDS011;11197;53.110;8.468;2023-07-31T00:44:09;5.82;;;1.98;;
22064;SDS011;11197;53.110;8.468;2023-07-31T00:46:35;5.40;;;1.92;;
22064;SDS011;11197;53.110;8.468;2023-07-31T00:49:01;4.20;;;1.90;;
22064;SDS011;11197;53.110;8.468;2023-07-31T00:51:28;3.90;;;1.63;;
22064;SDS011;11197;53.110;8.468;2023-07-31T00:53:55;5.47;;;2.15;;
22064;SDS011;11197;53.110;8.468;2023-07-31T00:56:21;5.15;;;1.85;;
22064;SDS011;11197;53.110;8.468;2023-07-31T00:58:48;2.95;;;1.70;;
22064;SDS011;11197;53.110;8.468;2023-07-31T01:01:14;3.90;;;1.75;;
22064;SDS011;11197;53.110;8.468;2023-07-31T01:03:40;3.75;;;1.80;;
22064;SDS011;11197;53.110;8.468;2023-07-31T01:06:15;5.45;;;2.00;;
22064;SDS011;11197;53.110;8.468;2023-07-31T01:11:27;3.85;;;1.83;;
22064;SDS011;11197;53.110;8.468;2023-07-31T01:13:55;3.65;;;1.70;;
22064;SDS011;11197;53.110;8.468;2023-07-31T01:16:21;3.17;;;1.70;;
22064;SDS011;11197;53.110;8.468;2023-07-31T01:18:47;5.63;;;1.80;;
22064;SDS011;11197;53.110;8.468;2023-07-31T01:21:28;6.00;;;2.10;;
22064;SDS011;11197;53.110;8.468;2023-07-31T01:26:36;5.10;;;1.85;;
22064;SDS011;11197;53.110;8.468;2023-07-31T01:29:12;5.28;;;2.22;;
22064;SDS011;11197;53.110;8.468;2023-07-31T01:31:48;4.57;;;2.00;;
22064;SDS011;11197;53.110;8.468;2023-07-31T01:34:18;4.65;;;1.88;;
22064;SDS011;11197;53.110;8.468;2023-07-31T01:36:45;4.55;;;1.80;;
22064;SDS011;11197;53.110;8.468;2023-07-31T01:39:11;3.83;;;1.83;;
22064;SDS011;11197;53.110;8.468;2023-07-31T01:41:37;3.38;;;1.88;;
22064;SDS011;11197;53.110;8.468;2023-07-31T01:44:03;4.80;;;2.00;;
22064;SDS011;11197;53.110;8.468;2023-07-31T01:46:29;4.57;;;2.08;;
22064;SDS011;11197;53.110;8.468;2023-07-31T01:48:55;4.68;;;2.00;;
22064;SDS011;11197;53.110;8.468;2023-07-31T01:51:21;4.55;;;2.05;;
22064;SDS011;11197;53.110;8.468;2023-07-31T01:53:46;3.50;;;1.90;;
22064;SDS011;11197;53.110;8.468;2023-07-31T01:56:12;5.55;;;2.20;;
22064;SDS011;11197;53.110;8.468;2023-07-31T01:58:38;4.07;;;2.10;;
22064;SDS011;11197;53.110;8.468;2023-07-31T02:01:03;3.25;;;1.92;;
22064;SDS011;11197;53.110;8.468;2023-07-31T02:03:29;3.13;;;1.92;;
22064;SDS011;11197;53.110;8.468;2023-07-31T02:05:55;3.03;;;1.98;;
22064;SDS011;11197;53.110;8.468;2023-07-31T02:08:24;3.47;;;1.80;;
22064;SDS011;11197;53.110;8.468;2023-07-31T02:10:51;3.78;;;2.15;;
22064;SDS011;11197;53.110;8.468;2023-07-31T02:13:17;4.18;;;2.10;;
22064;SDS011;11197;53.110;8.468;2023-07-31T02:15:42;4.15;;;2.17;;
22064;SDS011;11197;53.110;8.468;2023-07-31T02:18:08;2.90;;;1.75;;
22064;SDS011;11197;53.110;8.468;2023-07-31T02:20:34;3.65;;;2.10;;
22064;SDS011;11197;53.110;8.468;2023-07-31T02:23:01;5.07;;;2.10;;
22064;SDS011;11197;53.110;8.468;2023-07-31T02:25:27;4.03;;;1.80;;
22064;SDS011;11197;53.110;8.468;2023-07-31T02:27:52;3.97;;;2.00;;
22064;SDS011;11197;53.110;8.468;2023-07-31T02:30:18;4.13;;;2.25;;
22064;SDS011;11197;53.110;8.468;2023-07-31T02:32:44;4.15;;;2.22;;
22064;SDS011;11197;53.110;8.468;2023-07-31T02:35:10;3.17;;;1.92;;
22064;SDS011;11197;53.110;8.468;2023-07-31T02:37:40;3.88;;;2.30;;
22064;SDS011;11197;53.110;8.468;2023-07-31T02:40:09;3.15;;;1.80;;
22064;SDS011;11197;53.110;8.468;2023-07-31T02:42:35;6.20;;;2.13;;
22064;SDS011;11197;53.110;8.468;2023-07-31T02:45:00;3.40;;;1.95;;
22064;SDS011;11197;53.110;8.468;2023-07-31T02:47:27;3.15;;;1.92;;
22064;SDS011;11197;53.110;8.468;2023-07-31T02:49:52;4.68;;;2.50;;
22064;SDS011;11197;53.110;8.468;2023-07-31T02:52:18;3.60;;;2.13;;
22064;SDS011;11197;53.110;8.468;2023-07-31T02:54:44;3.83;;;2.28;;
22064;SDS011;11197;53.110;8.468;2023-07-31T02:57:10;4.03;;;2.15;;
22064;SDS011;11197;53.110;8.468;2023-07-31T02:59:36;3.35;;;2.10;;
22064;SDS011;11197;53.110;8.468;2023-07-31T03:02:02;5.07;;;2.30;;
22064;SDS011;11197;53.110;8.468;2023-07-31T03:04:28;6.18;;;2.70;;
22064;SDS011;11197;53.110;8.468;2023-07-31T03:06:54;4.22;;;2.20;;
22064;SDS011;11197;53.110;8.468;2023-07-31T03:09:20;5.90;;;2.22;;
22064;SDS011;11197;53.110;8.468;2023-07-31T03:11:46;3.63;;;2.35;;
22064;SDS011;11197;53.110;8.468;2023-07-31T03:14:12;4.10;;;2.85;;
22064;SDS011;11197;53.110;8.468;2023-07-31T03:16:38;4.15;;;2.60;;
22064;SDS011;11197;53.110;8.468;2023-07-31T03:19:04;3.88;;;2.63;;
22064;SDS011;11197;53.110;8.468;2023-07-31T03:21:29;4.80;;;2.90;;
22064;SDS011;11197;53.110;8.468;2023-07-31T03:23:55;3.88;;;2.70;;
22064;SDS011;11197;53.110;8.468;2023-07-31T03:26:22;4.80;;;2.70;;
22064;SDS011;11197;53.110;8.468;2023-07-31T03:28:48;3.78;;;2.58;;
22064;SDS011;11197;53.110;8.468;2023-07-31T03:31:14;4.72;;;2.75;;
22064;SDS011;11197;53.110;8.468;2023-07-31T03:33:40;4.57;;;2.88;;
22064;SDS011;11197;53.110;8.468;2023-07-31T03:36:06;4.07;;;2.50;;
22064;SDS011;11197;53.110;8.468;2023-07-31T03:38:33;3.95;;;2.58;;
22064;SDS011;11197;53.110;8.468;2023-07-31T03:40:59;3.50;;;2.60;;
22064;SDS011;11197;53.110;8.468;2023-07-31T03:43:25;4.57;;;2.80;;
22064;SDS011;11197;53.110;8.468;2023-07-31T03:45:51;5.57;;;2.80;;
22064;SDS011;11197;53.110;8.468;2023-07-31T03:48:17;3.90;;;2.80;;
22064;SDS011;11197;53.110;8.468;2023-07-31T03:50:43;3.47;;;2.60;;
22064;SDS011;11197;53.110;8.468;2023-07-31T03:53:09;5.63;;;3.10;;
22064;SDS011;11197;53.110;8.468;2023-07-31T03:55:34;3.35;;;2.42;;
22064;SDS011;11197;53.110;8.468;2023-07-31T03:58:00;4.07;;;2.67;;
22064;SDS011;11197;53.110;8.468;2023-07-31T04:00:26;4.53;;;2.53;;
22064;SDS011;11197;53.110;8.468;2023-07-31T04:02:52;3.63;;;2.25;;
22064;SDS011;11197;53.110;8.468;2023-07-31T04:05:18;3.33;;;2.38;;
22064;SDS011;11197;53.110;8.468;2023-07-31T04:07:44;4.13;;;2.30;;
22064;SDS011;11197;53.110;8.468;2023-07-31T04:10:09;3.33;;;2.47;;
22064;SDS011;11197;53.110;8.468;2023-07-31T04:12:35;2.72;;;2.05;;
22064;SDS011;11197;53.110;8.468;2023-07-31T04:15:01;3.20;;;2.10;;
22064;SDS011;11197;53.110;8.468;2023-07-31T04:17:26;2.63;;;1.90;;
22064;SDS011;11197;53.110;8.468;2023-07-31T04:19:52;2.58;;;1.92;;
22064;SDS011;11197;53.110;8.468;2023-07-31T04:22:18;3.45;;;2.30;;
22064;SDS011;11197;53.110;8.468;2023-07-31T04:24:43;2.95;;;1.88;;
22064;SDS011;11197;53.110;8.468;2023-07-31T04:27:09;2.92;;;2.00;;
22064;SDS011;11197;53.110;8.468;2023-07-31T04:29:35;2.85;;;1.98;;
22064;SDS011;11197;53.110;8.468;2023-07-31T04:32:01;3.00;;;1.67;;
22064;SDS011;11197;53.110;8.468;2023-07-31T04:34:26;2.45;;;1.48;;
22064;SDS011;11197;53.110;8.468;2023-07-31T04:36:52;4.28;;;1.45;;
22064;SDS011;11197;53.110;8.468;2023-07-31T04:39:18;2.80;;;1.50;;
22064;SDS011;11197;53.110;8.468;2023-07-31T04:41:43;2.08;;;1.45;;
22064;SDS011;11197;53.110;8.468;2023-07-31T04:44:09;2.17;;;1.45;;
22064;SDS011;11197;53.110;8.468;2023-07-31T04:46:36;2.10;;;1.55;;
22064;SDS011;11197;53.110;8.468;2023-07-31T04:49:02;2.22;;;1.38;;
22064;SDS011;11197;53.110;8.468;2023-07-31T04:51:28;2.05;;;1.42;;
22064;SDS011;11197;53.110;8.468;2023-07-31T04:53:54;2.78;;;1.42;;
22064;SDS011;11197;53.110;8.468;2023-07-31T04:56:19;2.35;;;1.40;;
22064;SDS011;11197;53.110;8.468;2023-07-31T04:58:45;1.70;;;1.30;;
22064;SDS011;11197;53.110;8.468;2023-07-31T05:01:11;2.63;;;1.40;;
22064;SDS011;11197;53.110;8.468;2023-07-31T05:03:36;3.40;;;1.30;;
22064;SDS011;11197;53.110;8.468;2023-07-31T05:06:02;1.85;;;1.30;;
22064;SDS011;11197;53.110;8.468;2023-07-31T05:08:28;2.20;;;1.42;;
22064;SDS011;11197;53.110;8.468;2023-07-31T05:10:53;2.67;;;1.50;;
22064;SDS011;11197;53.110;8.468;2023-07-31T05:13:19;2.05;;;1.40;;
22064;SDS011;11197;53.110;8.468;2023-07-31T05:15:45;2.42;;;1.30;;
22064;SDS011;11197;53.110;8.468;2023-07-31T05:18:11;2.10;;;1.20;;
22064;SDS011;11197;53.110;8.468;2023-07-31T05:20:36;2.22;;;1.35;;
22064;SDS011;11197;53.110;8.468;2023-07-31T05:23:02;2.03;;;0.82;;
22064;SDS011;11197;53.110;8.468;2023-07-31T05:25:28;1.48;;;1.00;;
22064;SDS011;11197;53.110;8.468;2023-07-31T05:27:54;1.88;;;1.10;;
22064;SDS011;11197;53.110;8.468;2023-07-31T05:30:19;2.90;;;1.08;;
22064;SDS011;11197;53.110;8.468;2023-07-31T05:32:46;1.92;;;1.10;;
22064;SDS011;11197;53.110;8.468;2023-07-31T05:35:12;1.65;;;1.13;;
22064;SDS011;11197;53.110;8.468;2023-07-31T05:37:37;2.15;;;1.35;;
22064;SDS011;11197;53.110;8.468;2023-07-31T05:40:03;2.15;;;1.60;;
22064;SDS011;11197;53.110;8.468;2023-07-31T05:42:29;2.20;;;1.60;;
22064;SDS011;11197;53.110;8.468;2023-07-31T05:44:55;2.47;;;1.92;;
22064;SDS011;11197;53.110;8.468;2023-07-31T05:47:21;2.72;;;2.05;;
22064;SDS011;11197;53.110;8.468;2023-07-31T05:49:46;3.45;;;2.15;;
22064;SDS011;11197;53.110;8.468;2023-07-31T05:52:14;2.50;;;2.13;;
22064;SDS011;11197;53.110;8.468;2023-07-31T05:54:41;3.00;;;1.98;;
22064;SDS011;11197;53.110;8.468;2023-07-31T05:57:07;3.17;;;2.40;;
22064;SDS011;11197;53.110;8.468;2023-07-31T05:59:32;3.17;;;2.50;;
22064;SDS011;11197;53.110;8.468;2023-07-31T06:01:58;4.32;;;2.60;;
22064;SDS011;11197;53.110;8.468;2023-07-31T06:04:24;2.80;;;2.38;;
22064;SDS011;11197;53.110;8.468;2023-07-31T06:06:50;3.53;;;2.90;;
22064;SDS011;11197;53.110;8.468;2023-07-31T06:09:17;3.00;;;2.20;;
22064;SDS011;11197;53.110;8.468;2023-07-31T06:11:42;3.30;;;2.60;;
22064;SDS011;11197;53.110;8.468;2023-07-31T06:14:08;3.40;;;2.70;;
22064;SDS011;11197;53.110;8.468;2023-07-31T06:16:34;5.03;;;2.70;;
22064;SDS011;11197;53.110;8.468;2023-07-31T06:19:00;2.70;;;2.28;;
22064;SDS011;11197;53.110;8.468;2023-07-31T06:21:26;2.63;;;2.03;;
22064;SDS011;11197;53.110;8.468;2023-07-31T06:23:51;4.25;;;2.72;;
22064;SDS011;11197;53.110;8.468;2023-07-31T06:26:17;2.97;;;2.35;;
22064;SDS011;11197;53.110;8.468;2023-07-31T06:28:43;2.90;;;2.25;;
22064;SDS011;11197;53.110;8.468;2023-07-31T06:31:09;2.55;;;2.05;;
22064;SDS011;11197;53.110;8.468;2023-07-31T06:33:35;2.33;;;1.90;;
22064;SDS011;11197;53.110;8.468;2023-07-31T06:36:01;3.58;;;1.90;;
22064;SDS011;11197;53.110;8.468;2023-07-31T06:38:26;2.42;;;1.80;;
22064;SDS011;11197;53.110;8.468;2023-07-31T06:40:52;3.03;;;1.88;;
22064;SDS011;11197;53.110;8.468;2023-07-31T06:43:18;2.72;;;1.90;;
22064;SDS011;11197;53.110;8.468;2023-07-31T06:45:44;3.22;;;2.20;;
22064;SDS011;11197;53.110;8.468;2023-07-31T06:48:11;2.40;;;1.70;;
22064;SDS011;11197;53.110;8.468;2023-07-31T06:50:36;3.58;;;2.40;;
22064;SDS011;11197;53.110;8.468;2023-07-31T06:53:02;3.33;;;2.65;;
22064;SDS011;11197;53.110;8.468;2023-07-31T06:55:28;2.40;;;2.00;;
22064;SDS011;11197;53.110;8.468;2023-07-31T06:57:54;4.22;;;1.98;;
22064;SDS011;11197;53.110;8.468;2023-07-31T07:00:21;2.20;;;1.63;;
22064;SDS011;11197;53.110;8.468;2023-07-31T07:02:48;2.53;;;1.50;;
22064;SDS011;11197;53.110;8.468;2023-07-31T07:05:14;1.38;;;1.00;;
22064;SDS011;11197;53.110;8.468;2023-07-31T07:07:42;1.10;;;1.00;;
22064;SDS011;11197;53.110;8.468;2023-07-31T07:10:08;1.55;;;1.00;;
22064;SDS011;11197;53.110;8.468;2023-07-31T07:12:34;1.40;;;1.00;;
22064;SDS011;11197;53.110;8.468;2023-07-31T07:15:01;1.88;;;1.00;;
22064;SDS011;11197;53.110;8.468;2023-07-31T07:17:27;1.80;;;1.00;;
22064;SDS011;11197;53.110;8.468;2023-07-31T07:19:56;2.75;;;1.08;;
22064;SDS011;11197;53.110;8.468;2023-07-31T07:22:22;2.40;;;1.60;;
22064;SDS011;11197;53.110;8.468;2023-07-31T07:24:49;4.38;;;1.80;;
22064;SDS011;11197;53.110;8.468;2023-07-31T07:27:14;4.90;;;2.13;;
22064;SDS011;11197;53.110;8.468;2023-07-31T07:29:40;4.97;;;2.30;;
22064;SDS011;11197;53.110;8.468;2023-07-31T07:32:06;5.25;;;2.42;;
22064;SDS011;11197;53.110;8.468;2023-07-31T07:34:33;6.20;;;3.20;;
22064;SDS011;11197;53.110;8.468;2023-07-31T07:36:58;5.55;;;3.38;;
22064;SDS011;11197;53.110;8.468;2023-07-31T07:39:24;7.63;;;4.00;;
22064;SDS011;11197;53.110;8.468;2023-07-31T07:41:50;8.25;;;4.45;;
22064;SDS011;11197;53.110;8.468;2023-07-31T07:44:16;9.60;;;5.47;;
22064;SDS011;11197;53.110;8.468;2023-07-31T07:46:41;8.52;;;5.55;;
22064;SDS011;11197;53.110;8.468;2023-07-31T07:49:07;10.40;;;5.57;;
22064;SDS011;11197;53.110;8.468;2023-07-31T07:51:33;13.57;;;6.43;;
22064;SDS011;11197;53.110;8.468;2023-07-31T07:53:59;12.68;;;6.10;;
22064;SDS011;11197;53.110;8.468;2023-07-31T07:56:27;11.75;;;6.10;;
22064;SDS011;11197;53.110;8.468;2023-07-31T07:58:53;15.52;;;7.30;;
22064;SDS011;11197;53.110;8.468;2023-07-31T08:01:19;18.50;;;7.80;;
22064;SDS011;11197;53.110;8.468;2023-07-31T08:03:45;18.88;;;8.00;;
22064;SDS011;11197;53.110;8.468;2023-07-31T08:06:12;17.35;;;8.10;;
22064;SDS011;11197;53.110;8.468;2023-07-31T08:08:38;19.70;;;8.90;;
22064;SDS011;11197;53.110;8.468;2023-07-31T08:11:04;18.17;;;8.70;;
22064;SDS011;11197;53.110;8.468;2023-07-31T08:13:29;20.25;;;9.18;;
22064;SDS011;11197;53.110;8.468;2023-07-31T08:15:55;22.80;;;9.80;;
22064;SDS011;11197;53.110;8.468;2023-07-31T08:18:21;20.77;;;9.73;;
22064;SDS011;11197;53.110;8.468;2023-07-31T08:20:47;19.95;;;9.43;;
22064;SDS011;11197;53.110;8.468;2023-07-31T08:23:13;21.80;;;10.32;;
22064;SDS011;11197;53.110;8.468;2023-07-31T08:25:39;18.60;;;9.60;;
22064;SDS011;11197;53.110;8.468;2023-07-31T08:28:05;23.48;;;9.93;;
22064;SDS011;11197;53.110;8.468;2023-07-31T08:30:31;24.20;;;9.60;;
22064;SDS011;11197;53.110;8.468;2023-07-31T08:33:16;17.75;;;9.50;;
22064;SDS011;11197;53.110;8.468;2023-07-31T08:35:42;21.13;;;9.88;;
22064;SDS011;11197;53.110;8.468;2023-07-31T08:38:08;27.48;;;10.32;;
22064;SDS011;11197;53.110;8.468;2023-07-31T08:45:37;25.65;;;10.43;;
22064;SDS011;11197;53.110;8.468;2023-07-31T08:48:06;25.00;;;11.27;;
22064;SDS011;11197;53.110;8.468;2023-07-31T08:50:32;21.08;;;10.18;;
22064;SDS011;11197;53.110;8.468;2023-07-31T08:52:58;22.85;;;9.88;;
22064;SDS011;11197;53.110;8.468;2023-07-31T08:55:24;22.55;;;9.32;;
22064;SDS011;11197;53.110;8.468;2023-07-31T08:57:51;18.40;;;10.10;;
22064;SDS011;11197;53.110;8.468;2023-07-31T09:00:20;16.00;;;9.35;;
22064;SDS011;11197;53.110;8.468;2023-07-31T09:02:51;17.45;;;8.60;;
22064;SDS011;11197;53.110;8.468;2023-07-31T09:05:28;13.52;;;7.55;;
22064;SDS011;11197;53.110;8.468;2023-07-31T09:07:56;16.80;;;8.35;;
22064;SDS011;11197;53.110;8.468;2023-07-31T09:10:22;15.75;;;7.70;;
22064;SDS011;11197;53.110;8.468;2023-07-31T09:12:49;12.52;;;7.28;;
22064;SDS011;11197;53.110;8.468;2023-07-31T09:15:17;14.82;;;7.15;;
22064;SDS011;11197;53.110;8.468;2023-07-31T09:17:43;14.35;;;6.95;;
22064;SDS011;11197;53.110;8.468;2023-07-31T09:20:12;14.13;;;6.07;;
22064;SDS011;11197;53.110;8.468;2023-07-31T09:22:38;13.05;;;5.70;;
22064;SDS011;11197;53.110;8.468;2023-07-31T09:27:47;11.52;;;5.30;;
22064;SDS011;11197;53.110;8.468;2023-07-31T09:30:23;11.90;;;5.70;;
22064;SDS011;11197;53.110;8.468;2023-07-31T09:32:50;10.30;;;5.00;;
22064;SDS011;11197;53.110;8.468;2023-07-31T09:37:51;12.48;;;5.55;;
22064;SDS011;11197;53.110;8.468;2023-07-31T09:40:27;11.50;;;4.90;;
22064;SDS011;11197;53.110;8.468;2023-07-31T09:43:07;10.52;;;5.32;;
22064;SDS011;11197;53.110;8.468;2023-07-31T09:45:35;10.52;;;4.78;;
22064;SDS011;11197;53.110;8.468;2023-07-31T09:48:06;8.35;;;5.10;;
22064;SDS011;11197;53.110;8.468;2023-07-31T09:50:44;10.20;;;5.53;;
22064;SDS011;11197;53.110;8.468;2023-07-31T09:53:10;11.13;;;4.87;;
22064;SDS011;11197;53.110;8.468;2023-07-31T09:55:37;9.63;;;4.85;;
22064;SDS011;11197;53.110;8.468;2023-07-31T09:58:04;9.02;;;4.60;;
22064;SDS011;11197;53.110;8.468;2023-07-31T10:00:34;11.07;;;4.45;;
22064;SDS011;11197;53.110;8.468;2023-07-31T10:03:01;7.32;;;4.00;;
22064;SDS011;11197;53.110;8.468;2023-07-31T10:05:42;9.23;;;4.35;;
22064;SDS011;11197;53.110;8.468;2023-07-31T10:08:11;9.90;;;4.13;;
22064;SDS011;11197;53.110;8.468;2023-07-31T10:10:43;6.38;;;3.70;;
22064;SDS011;11197;53.110;8.468;2023-07-31T10:15:36;6.80;;;3.30;;
22064;SDS011;11197;53.110;8.468;2023-07-31T10:18:03;7.18;;;3.92;;
22064;SDS011;11197;53.110;8.468;2023-07-31T10:20:31;4.45;;;3.28;;
22064;SDS011;11197;53.110;8.468;2023-07-31T10:22:57;7.18;;;3.60;;
22064;SDS011;11197;53.110;8.468;2023-07-31T10:25:24;5.57;;;3.05;;
22064;SDS011;11197;53.110;8.468;2023-07-31T10:27:51;6.03;;;3.03;;
22064;SDS011;11197;53.110;8.468;2023-07-31T10:30:19;6.97;;;2.97;;
22064;SDS011;11197;53.110;8.468;2023-07-31T10:32:51;5.95;;;3.30;;
22064;SDS011;11197;53.110;8.468;2023-07-31T10:35:20;5.20;;;2.90;;
22064;SDS011;11197;53.110;8.468;2023-07-31T10:37:47;6.13;;;2.70;;
22064;SDS011;11197;53.110;8.468;2023-07-31T10:40:23;5.30;;;2.80;;
22064;SDS011;11197;53.110;8.468;2023-07-31T10:42:54;5.87;;;2.70;;
22064;SDS011;11197;53.110;8.468;2023-07-31T10:48:18;4.47;;;2.17;;
22064;SDS011;11197;53.110;8.468;2023-07-31T10:50:50;4.60;;;2.30;;
22064;SDS011;11197;53.110;8.468;2023-07-31T10:56:00;4.68;;;2.10;;
22064;SDS011;11197;53.110;8.468;2023-07-31T10:58:26;3.03;;;2.00;;
22064;SDS011;11197;53.110;8.468;2023-07-31T11:00:55;2.58;;;1.67;;
22064;SDS011;11197;53.110;8.468;2023-07-31T11:03:24;4.10;;;1.70;;
22064;SDS011;11197;53.110;8.468;2023-07-31T11:08:32;2.03;;;1.20;;
22064;SDS011;11197;53.110;8.468;2023-07-31T11:13:41;1.52;;;0.90;;
22064;SDS011;11197;53.110;8.468;2023-07-31T11:16:11;1.67;;;1.00;;
22064;SDS011;11197;53.110;8.468;2023-07-31T11:18:41;1.52;;;0.88;;
22064;SDS011;11197;53.110;8.468;2023-07-31T11:23:36;1.67;;;1.10;;
22064;SDS011;11197;53.110;8.468;2023-07-31T11:26:04;1.15;;;1.00;;
22064;SDS011;11197;53.110;8.468;2023-07-31T11:28:31;2.33;;;1.10;;
22064;SDS011;11197;53.110;8.468;2023-07-31T11:31:01;0.93;;;0.82;;
22064;SDS011;11197;53.110;8.468;2023-07-31T11:33:28;3.45;;;0.80;;
22064;SDS011;11197;53.110;8.468;2023-07-31T11:35:53;1.30;;;0.80;;
22064;SDS011;11197;53.110;8.468;2023-07-31T11:38:26;2.92;;;0.80;;
22064;SDS011;11197;53.110;8.468;2023-07-31T11:41:02;0.73;;;0.60;;
22064;SDS011;11197;53.110;8.468;2023-07-31T11:43:29;0.98;;;0.70;;
22064;SDS011;11197;53.110;8.468;2023-07-31T11:45:57;0.88;;;0.73;;
22064;SDS011;11197;53.110;8.468;2023-07-31T11:48:29;1.23;;;0.80;;
22064;SDS011;11197;53.110;8.468;2023-07-31T11:50:59;0.98;;;0.70;;
22064;SDS011;11197;53.110;8.468;2023-07-31T11:53:44;0.82;;;0.70;;
22064;SDS011;11197;53.110;8.468;2023-07-31T11:56:16;1.20;;;0.80;;
22064;SDS011;11197;53.110;8.468;2023-07-31T11:58:45;0.82;;;0.60;;
22064;SDS011;11197;53.110;8.468;2023-07-31T12:01:13;1.45;;;0.68;;
22064;SDS011;11197;53.110;8.468;2023-07-31T12:03:41;1.13;;;0.82;;
22064;SDS011;11197;53.110;8.468;2023-07-31T12:06:08;1.48;;;0.60;;
22064;SDS011;11197;53.110;8.468;2023-07-31T12:08:34;0.90;;;0.70;;
22064;SDS011;11197;53.110;8.468;2023-07-31T12:11:03;0.68;;;0.68;;
22064;SDS011;11197;53.110;8.468;2023-07-31T12:13:30;1.25;;;0.68;;
22064;SDS011;11197;53.110;8.468;2023-07-31T12:15:58;2.05;;;0.80;;
22064;SDS011;11197;53.110;8.468;2023-07-31T12:18:30;0.73;;;0.60;;
22064;SDS011;11197;53.110;8.468;2023-07-31T12:21:00;1.92;;;0.70;;
22064;SDS011;11197;53.110;8.468;2023-07-31T12:23:29;0.60;;;0.60;;
22064;SDS011;11197;53.110;8.468;2023-07-31T12:26:03;1.35;;;0.90;;
22064;SDS011;11197;53.110;8.468;2023-07-31T12:28:36;0.85;;;0.80;;
22064;SDS011;11197;53.110;8.468;2023-07-31T12:31:05;2.42;;;1.00;;
22064;SDS011;11197;53.110;8.468;2023-07-31T12:33:36;1.98;;;0.90;;
22064;SDS011;11197;53.110;8.468;2023-07-31T12:36:13;0.80;;;0.73;;
22064;SDS011;11197;53.110;8.468;2023-07-31T12:38:40;1.60;;;0.88;;
22064;SDS011;11197;53.110;8.468;2023-07-31T12:41:07;2.38;;;1.10;;
22064;SDS011;11197;53.110;8.468;2023-07-31T12:43:33;2.97;;;1.10;;
22064;SDS011;11197;53.110;8.468;2023-07-31T12:48:29;1.77;;;1.20;;
22064;SDS011;11197;53.110;8.468;2023-07-31T12:50:56;2.20;;;1.02;;
22064;SDS011;11197;53.110;8.468;2023-07-31T12:53:22;1.33;;;1.13;;
22064;SDS011;11197;53.110;8.468;2023-07-31T12:55:49;1.70;;;1.10;;
22064;SDS011;11197;53.110;8.468;2023-07-31T12:58:15;1.92;;;1.30;;
22064;SDS011;11197;53.110;8.468;2023-07-31T13:00:41;1.88;;;1.35;;
22064;SDS011;11197;53.110;8.468;2023-07-31T13:03:07;1.60;;;1.30;;
22064;SDS011;11197;53.110;8.468;2023-07-31T13:05:33;1.60;;;1.25;;
22064;SDS011;11197;53.110;8.468;2023-07-31T13:07:59;1.92;;;1.42;;
22064;SDS011;11197;53.110;8.468;2023-07-31T13:10:24;2.83;;;1.50;;
22064;SDS011;11197;53.110;8.468;2023-07-31T13:12:54;1.60;;;1.42;;
22064;SDS011;11197;53.110;8.468;2023-07-31T13:15:20;2.25;;;1.50;;
22064;SDS011;11197;53.110;8.468;2023-07-31T13:17:46;2.00;;;1.65;;
22064;SDS011;11197;53.110;8.468;2023-07-31T13:20:13;3.03;;;1.70;;
22064;SDS011;11197;53.110;8.468;2023-07-31T13:22:38;2.30;;;1.90;;
22064;SDS011;11197;53.110;8.468;2023-07-31T13:25:04;3.50;;;1.95;;
22064;SDS011;11197;53.110;8.468;2023-07-31T13:27:31;2.97;;;2.10;;
22064;SDS011;11197;53.110;8.468;2023-07-31T13:29:57;2.47;;;1.90;;
22064;SDS011;11197;53.110;8.468;2023-07-31T13:32:22;3.70;;;1.95;;
22064;SDS011;11197;53.110;8.468;2023-07-31T13:34:48;3.35;;;2.10;;
22064;SDS011;11197;53.110;8.468;2023-07-31T13:37:15;2.42;;;2.10;;
22064;SDS011;11197;53.110;8.468;2023-07-31T13:39:43;2.63;;;2.28;;
22064;SDS011;11197;53.110;8.468;2023-07-31T13:42:09;3.10;;;2.30;;
22064;SDS011;11197;53.110;8.468;2023-07-31T13:44:37;3.13;;;2.60;;
22064;SDS011;11197;53.110;8.468;2023-07-31T13:47:03;2.92;;;2.50;;
22064;SDS011;11197;53.110;8.468;2023-07-31T13:49:29;3.63;;;2.78;;
22064;SDS011;11197;53.110;8.468;2023-07-31T13:51:55;3.35;;;2.85;;
22064;SDS011;11197;53.110;8.468;2023-07-31T13:54:24;3.47;;;2.97;;
22064;SDS011;11197;53.110;8.468;2023-07-31T13:56:51;3.90;;;3.42;;
22064;SDS011;11197;53.110;8.468;2023-07-31T13:59:18;3.80;;;3.40;;
22064;SDS011;11197;53.110;8.468;2023-07-31T14:01:44;3.95;;;3.42;;
22064;SDS011;11197;53.110;8.468;2023-07-31T14:04:11;4.57;;;3.83;;
22064;SDS011;11197;53.110;8.468;2023-07-31T14:06:37;4.80;;;4.10;;
22064;SDS011;11197;53.110;8.468;2023-07-31T14:09:04;6.30;;;4.68;;
22064;SDS011;11197;53.110;8.468;2023-07-31T14:11:30;5.35;;;4.78;;
22064;SDS011;11197;53.110;8.468;2023-07-31T14:13:56;7.35;;;5.13;;
22064;SDS011;11197;53.110;8.468;2023-07-31T14:16:23;6.05;;;4.63;;
22064;SDS011;11197;53.110;8.468;2023-07-31T14:18:49;7.40;;;5.32;;
22064;SDS011;11197;53.110;8.468;2023-07-31T14:21:15;8.05;;;5.07;;
22064;SDS011;11197;53.110;8.468;2023-07-31T14:23:41;7.00;;;4.88;;
22064;SDS011;11197;53.110;8.468;2023-07-31T14:26:07;4.60;;;4.00;;
22064;SDS011;11197;53.110;8.468;2023-07-31T14:28:33;6.35;;;4.70;;
22064;SDS011;11197;53.110;8.468;2023-07-31T14:30:59;6.68;;;4.45;;
22064;SDS011;11197;53.110;8.468;2023-07-31T14:33:26;7.25;;;5.32;;
22064;SDS011;11197;53.110;8.468;2023-07-31T14:35:52;7.00;;;5.60;;
22064;SDS011;11197;53.110;8.468;2023-07-31T14:38:17;6.80;;;5.57;;
22064;SDS011;11197;53.110;8.468;2023-07-31T14:40:43;7.03;;;6.25;;
22064;SDS011;11197;53.110;8.468;2023-07-31T14:43:09;7.68;;;6.05;;
22064;SDS011;11197;53.110;8.468;2023-07-31T14:45:35;7.38;;;6.13;;
22064;SDS011;11197;53.110;8.468;2023-07-31T14:48:00;8.88;;;6.28;;
22064;SDS011;11197;53.110;8.468;2023-07-31T14:50:26;7.53;;;6.30;;
22064;SDS011;11197;53.110;8.468;2023-07-31T14:52:52;8.30;;;6.43;;
22064;SDS011;11197;53.110;8.468;2023-07-31T14:55:18;8.60;;;7.00;;
22064;SDS011;11197;53.110;8.468;2023-07-31T14:57:44;8.18;;;6.93;;
22064;SDS011;11197;53.110;8.468;2023-07-31T15:00:10;7.68;;;6.60;;
22064;SDS011;11197;53.110;8.468;2023-07-31T15:02:36;7.53;;;6.80;;
22064;SDS011;11197;53.110;8.468;2023-07-31T15:05:03;7.55;;;6.50;;
22064;SDS011;11197;53.110;8.468;2023-07-31T15:07:31;5.28;;;3.92;;
22064;SDS011;11197;53.110;8.468;2023-07-31T15:09:58;6.30;;;5.50;;
22064;SDS011;11197;53.110;8.468;2023-07-31T15:12:23;6.50;;;5.30;;
22064;SDS011;11197;53.110;8.468;2023-07-31T15:14:50;7.45;;;5.65;;
22064;SDS011;11197;53.110;8.468;2023-07-31T15:17:17;5.97;;;5.18;;